createdAt,value
2019-03-12T00:03:01.878Z,91.50
2019-03-12T00:07:10.079Z,91.50
2019-03-12T00:11:18.316Z,91.50
2019-03-12T00:15:26.511Z,91.60
2019-03-12T00:19:34.660Z,91.70
2019-03-12T00:23:42.859Z,91.80
2019-03-12T00:27:51.082Z,91.60
2019-03-12T00:31:59.348Z,91.50
2019-03-12T00:40:35.137Z,91.90
2019-03-12T00:44:42.763Z,91.70
2019-03-12T00:48:50.545Z,91.70
2019-03-12T00:53:00.317Z,92.20
2019-03-12T00:57:10.384Z,92.10
2019-03-12T01:01:17.883Z,92.00
2019-03-12T01:05:26.149Z,92.10
2019-03-12T01:09:34.522Z,92.10
2019-03-12T01:13:43.169Z,92.10
2019-03-12T01:17:52.765Z,92.20
2019-03-12T01:22:00.591Z,92.20
2019-03-12T01:26:08.226Z,92.30
2019-03-12T01:30:15.779Z,92.30
2019-03-12T01:42:39.411Z,91.40
2019-03-12T01:46:47.906Z,92.00
2019-03-12T01:50:56.143Z,91.90
2019-03-12T01:55:06.329Z,92.20
2019-03-12T01:59:14.595Z,92.30
2019-03-12T02:03:22.862Z,92.30
2019-03-12T02:07:31.192Z,92.70
2019-03-12T02:11:40.698Z,92.10
2019-03-12T02:15:49.783Z,92.30
2019-03-12T02:19:58.485Z,92.10
2019-03-12T02:24:06.184Z,92.10
2019-03-12T02:28:16.176Z,92.40
2019-03-12T02:32:25.197Z,92.10
2019-03-12T02:36:32.689Z,91.80
2019-03-12T02:40:40.899Z,92.10
2019-03-12T02:44:50.032Z,91.90
2019-03-12T02:48:57.580Z,92.20
2019-03-12T02:53:05.098Z,92.20
2019-03-12T02:57:12.637Z,92.50
2019-03-12T03:01:20.713Z,92.20
2019-03-12T03:13:44.194Z,92.00
2019-03-12T03:17:52.409Z,92.70
2019-03-12T03:22:00.581Z,92.30
2019-03-12T03:26:08.755Z,92.50
2019-03-12T03:30:19.068Z,92.70
2019-03-12T03:34:28.926Z,92.40
2019-03-12T03:38:35.777Z,92.70
2019-03-12T03:42:43.995Z,92.40
2019-03-12T03:46:52.184Z,92.40
2019-03-12T03:51:00.373Z,93.10
2019-03-12T03:55:10.649Z,93.40
2019-03-12T03:59:18.865Z,93.20
2019-03-12T04:03:27.065Z,92.80
2019-03-12T04:07:35.262Z,92.90
2019-03-12T04:11:43.519Z,92.70
2019-03-12T04:15:51.709Z,92.40
2019-03-12T04:19:59.877Z,92.20
2019-03-12T04:24:08.083Z,92.00
2019-03-12T04:28:16.256Z,91.80
2019-03-12T04:32:24.452Z,91.50
2019-03-12T04:36:32.635Z,91.30
2019-03-12T04:40:40.845Z,91.20
2019-03-12T04:44:49.484Z,91.50
2019-03-12T04:48:57.626Z,91.30
2019-03-12T04:53:05.866Z,91.10
2019-03-12T04:57:14.036Z,91.10
2019-03-12T05:01:22.208Z,91.20
2019-03-12T05:05:30.473Z,91.10
2019-03-12T05:09:38.706Z,91.20
2019-03-12T05:14:50.019Z,91.10
2019-03-12T05:18:58.765Z,91.20
2019-03-12T05:23:06.970Z,91.30
2019-03-12T05:27:15.150Z,91.10
2019-03-12T05:31:23.363Z,90.80
2019-03-12T05:35:31.763Z,90.50
2019-03-12T05:39:39.926Z,89.90
2019-03-12T05:43:48.099Z,90.00
2019-03-12T05:48:00.552Z,89.70
2019-03-12T05:52:08.718Z,89.40
2019-03-12T05:56:16.899Z,88.80
2019-03-12T06:00:25.921Z,88.40
2019-03-12T06:04:34.312Z,88.60
2019-03-12T06:08:42.502Z,87.20
2019-03-12T06:12:51.054Z,86.60
2019-03-12T06:16:59.723Z,85.40
2019-03-12T06:21:07.943Z,85.10
2019-03-12T06:25:16.133Z,85.40
2019-03-12T06:29:24.970Z,84.00
2019-03-12T06:33:37.534Z,83.70
2019-03-12T06:37:50.016Z,83.20
2019-03-12T06:46:14.368Z,81.50
2019-03-12T06:50:28.070Z,81.10
2019-03-12T07:05:09.562Z,77.50
2019-03-12T07:09:22.809Z,79.00
2019-03-12T07:13:38.734Z,78.70
2019-03-12T07:18:24.922Z,78.00
2019-03-12T07:22:37.099Z,78.60
2019-03-12T07:27:00.755Z,78.80
2019-03-12T07:31:14.450Z,77.20
2019-03-12T07:35:28.083Z,76.40
2019-03-12T07:39:42.455Z,75.70
2019-03-12T07:43:55.160Z,75.10
2019-03-12T07:48:08.835Z,74.60
2019-03-12T07:52:31.339Z,74.70
2019-03-12T07:57:04.792Z,74.50
2019-03-12T08:02:18.115Z,74.40
2019-03-12T08:06:30.183Z,73.70
2019-03-12T08:10:43.013Z,74.20
2019-03-12T08:14:56.359Z,74.40
2019-03-12T08:19:09.907Z,74.50
2019-03-12T08:23:22.504Z,74.30
2019-03-12T08:29:38.346Z,73.50
2019-03-12T08:33:57.971Z,72.50
2019-03-12T08:46:29.634Z,71.40
2019-03-12T08:50:42.117Z,67.70
2019-03-12T08:55:54.671Z,66.00
2019-03-12T09:00:11.202Z,65.50
2019-03-12T09:04:25.748Z,65.40
2019-03-12T09:08:38.433Z,64.30
2019-03-12T09:13:12.022Z,63.50
2019-03-12T09:17:24.563Z,62.70
2019-03-12T09:21:37.232Z,61.30
2019-03-12T09:26:55.716Z,61.50
2019-03-12T09:31:25.923Z,61.60
2019-03-12T09:35:40.279Z,61.00
2019-03-12T09:41:57.331Z,61.20
2019-03-12T09:46:09.795Z,61.00
2019-03-12T09:50:29.272Z,61.00
2019-03-12T09:54:49.809Z,60.30
2019-03-12T09:59:01.786Z,59.80
2019-03-12T10:03:20.507Z,59.30
2019-03-12T10:08:35.003Z,59.00
2019-03-12T10:13:04.947Z,58.10
2019-03-12T10:17:18.660Z,57.70
2019-03-12T10:21:34.425Z,58.60
2019-03-12T10:25:50.590Z,57.50
2019-03-12T10:30:08.269Z,57.00
2019-03-12T10:34:38.803Z,56.30
2019-03-12T10:39:05.652Z,55.60
2019-03-12T10:44:17.572Z,55.00
2019-03-12T10:48:26.923Z,55.40
2019-03-12T10:52:35.243Z,55.50
2019-03-12T10:56:43.714Z,55.90
2019-03-12T11:00:52.490Z,56.00
2019-03-12T11:05:00.521Z,55.70
2019-03-12T11:09:08.716Z,55.40
2019-03-12T11:13:16.887Z,54.50
2019-03-12T11:17:25.597Z,54.50
2019-03-12T11:21:34.259Z,54.00
2019-03-12T11:25:42.440Z,53.50
2019-03-12T11:29:50.855Z,53.70
2019-03-12T11:33:59.812Z,53.00
2019-03-12T11:38:07.997Z,52.50
2019-03-12T11:42:15.516Z,51.60
2019-03-12T11:46:24.449Z,51.10
2019-03-12T11:51:35.992Z,50.30
2019-03-12T11:55:44.259Z,50.10
2019-03-12T11:59:52.447Z,49.40
2019-03-12T12:04:00.611Z,48.90
2019-03-12T12:08:08.853Z,48.60
2019-03-12T12:12:17.016Z,48.90
2019-03-12T12:16:25.236Z,48.80
2019-03-12T12:20:33.409Z,48.80
2019-03-12T12:24:41.563Z,48.40
2019-03-12T12:28:49.712Z,47.90
2019-03-12T12:32:57.896Z,48.00
2019-03-12T12:37:06.054Z,47.90
2019-03-12T12:41:14.246Z,47.90
2019-03-12T12:45:23.395Z,48.10
2019-03-12T12:49:31.563Z,47.80
2019-03-12T12:53:40.036Z,47.90
2019-03-12T12:57:48.215Z,47.60
2019-03-12T13:01:56.388Z,47.30
2019-03-12T13:06:04.564Z,46.50
2019-03-12T13:10:15.671Z,45.90
2019-03-12T13:14:23.830Z,45.20
2019-03-12T13:18:31.988Z,47.00
2019-03-12T13:22:40.188Z,47.30
2019-03-12T13:26:48.349Z,47.90
2019-03-12T13:30:56.532Z,47.10
2019-03-12T13:35:05.327Z,47.20
2019-03-12T13:39:13.516Z,47.10
2019-03-12T13:43:21.762Z,45.80
2019-03-12T13:47:30.166Z,45.40
2019-03-12T13:51:38.124Z,45.00
2019-03-12T13:55:46.282Z,45.50
2019-03-12T13:59:54.451Z,45.80
2019-03-12T14:04:10.513Z,45.50
2019-03-12T14:08:10.852Z,45.10
2019-03-12T14:12:19.048Z,43.30
2019-03-12T14:16:27.264Z,44.70
2019-03-12T14:20:40.854Z,45.20
2019-03-12T14:24:49.051Z,45.30
2019-03-12T14:28:57.243Z,46.00
2019-03-12T14:33:05.421Z,46.00
2019-03-12T14:37:13.632Z,46.80
2019-03-12T14:41:21.803Z,47.40
2019-03-12T14:45:29.981Z,47.10
2019-03-12T14:49:38.143Z,46.30
2019-03-12T14:53:47.332Z,45.30
2019-03-12T14:57:55.529Z,45.20
2019-03-12T15:02:03.846Z,45.30
2019-03-12T15:06:12.039Z,45.40
2019-03-12T15:10:20.207Z,45.60
2019-03-12T15:14:28.470Z,45.90
2019-03-12T15:18:36.674Z,44.90
2019-03-12T15:22:44.863Z,44.20
2019-03-12T15:26:53.090Z,44.30
2019-03-12T15:31:02.352Z,44.10
2019-03-12T15:35:10.189Z,43.70
2019-03-12T15:39:18.689Z,43.10
2019-03-12T15:43:27.075Z,44.60
2019-03-12T15:47:38.725Z,43.90
2019-03-12T15:51:42.823Z,44.50
2019-03-12T15:55:51.002Z,44.70
2019-03-12T15:59:59.287Z,44.80
2019-03-12T16:04:07.459Z,44.60
2019-03-12T16:08:14.971Z,45.00
2019-03-12T16:12:23.132Z,46.60
2019-03-12T16:16:31.456Z,46.20
2019-03-12T16:20:39.611Z,46.50
2019-03-12T16:24:47.835Z,46.00
2019-03-12T16:28:55.327Z,46.20
2019-03-12T16:33:02.841Z,45.90
2019-03-12T16:37:11.013Z,46.10
2019-03-12T16:41:19.198Z,46.30
2019-03-12T16:45:27.383Z,46.30
2019-03-12T16:49:35.743Z,47.30
2019-03-12T16:53:43.947Z,47.00
2019-03-12T16:57:52.123Z,46.70
2019-03-12T17:02:00.791Z,47.20
2019-03-12T17:06:09.015Z,47.70
2019-03-12T17:10:17.305Z,48.10
2019-03-12T17:14:38.046Z,48.70
2019-03-12T17:18:33.600Z,48.60
2019-03-12T17:22:41.943Z,48.90
2019-03-12T17:26:50.158Z,48.80
2019-03-12T17:30:58.334Z,49.10
2019-03-12T17:35:06.393Z,49.20
2019-03-12T17:39:14.580Z,49.10
2019-03-12T17:43:22.844Z,49.10
2019-03-12T17:47:31.035Z,49.20
2019-03-12T17:51:39.272Z,50.00
2019-03-12T17:55:47.466Z,49.50
2019-03-12T17:59:55.710Z,49.50
2019-03-12T18:04:03.972Z,49.50
2019-03-12T18:08:11.446Z,49.90
2019-03-12T18:12:19.615Z,49.50
2019-03-12T18:16:39.971Z,49.00
2019-03-12T18:20:35.970Z,49.00
2019-03-12T18:24:44.258Z,48.60
2019-03-12T18:28:52.459Z,48.30
2019-03-12T18:33:00.639Z,48.70
2019-03-12T18:37:08.878Z,47.60
2019-03-12T18:41:17.123Z,48.00
2019-03-12T18:45:25.424Z,47.60
2019-03-12T18:49:33.643Z,47.70
2019-03-12T18:53:41.821Z,47.30
2019-03-12T18:57:50.050Z,47.30
2019-03-12T19:01:58.346Z,46.70
2019-03-12T19:06:09.847Z,46.30
2019-03-12T19:10:17.032Z,46.40
2019-03-12T19:14:23.206Z,46.00
2019-03-12T19:18:31.414Z,46.20
2019-03-12T19:22:39.571Z,46.00
2019-03-12T19:26:47.782Z,46.40
2019-03-12T19:31:00.340Z,46.50
2019-03-12T19:35:11.180Z,47.00
2019-03-12T19:39:19.402Z,48.20
2019-03-12T19:43:27.697Z,49.10
2019-03-12T19:47:35.863Z,51.00
2019-03-12T19:51:44.047Z,52.60
2019-03-12T20:04:09.583Z,54.90
2019-03-12T20:08:17.882Z,60.70
2019-03-12T20:14:42.055Z,61.80
2019-03-12T20:19:04.508Z,63.10
2019-03-12T20:23:30.723Z,66.20
2019-03-12T20:27:50.138Z,66.10
2019-03-12T20:32:05.273Z,67.40
2019-03-12T20:38:48.388Z,71.40
2019-03-12T20:43:06.572Z,73.10
2019-03-12T20:47:38.632Z,76.90
2019-03-12T20:51:58.323Z,78.40
2019-03-12T20:56:17.922Z,79.00
2019-03-12T21:00:46.981Z,79.40
2019-03-12T21:05:11.048Z,81.20
2019-03-12T21:09:31.104Z,80.80
2019-03-12T21:13:54.496Z,81.90
2019-03-12T21:20:20.684Z,80.70
2019-03-12T21:24:39.320Z,81.10
2019-03-12T21:28:58.736Z,79.20
2019-03-12T21:33:15.385Z,79.40
2019-03-12T21:37:15.325Z,79.60
2019-03-12T21:41:23.511Z,80.60
2019-03-12T21:45:31.784Z,81.00
2019-03-12T21:49:39.956Z,80.40
2019-03-12T21:53:48.186Z,81.60
2019-03-12T21:57:56.432Z,82.10
2019-03-12T22:02:04.594Z,82.80
2019-03-12T22:06:12.774Z,82.70
2019-03-12T22:10:20.927Z,83.20
2019-03-12T22:14:29.298Z,83.60
2019-03-12T22:18:36.718Z,83.70
2019-03-12T22:22:49.968Z,84.20
2019-03-12T22:26:58.147Z,84.50
2019-03-12T22:31:06.470Z,84.60
2019-03-12T22:35:14.703Z,84.10
2019-03-12T22:39:22.894Z,84.60
2019-03-12T22:43:31.098Z,84.30
2019-03-12T22:47:39.262Z,84.30
2019-03-12T22:51:47.500Z,84.30
2019-03-12T22:55:55.653Z,85.10
2019-03-12T23:00:04.366Z,84.80
2019-03-12T23:04:12.530Z,84.50
2019-03-12T23:08:20.776Z,85.40
2019-03-12T23:12:28.943Z,84.40
2019-03-12T23:16:37.202Z,84.40
2019-03-12T23:20:45.407Z,83.70
2019-03-12T23:24:53.659Z,83.80
2019-03-12T23:29:01.836Z,84.30
2019-03-12T23:33:10.046Z,84.10
2019-03-12T23:37:18.256Z,83.20
2019-03-12T23:41:26.426Z,83.90
2019-03-12T23:45:34.587Z,84.00
2019-03-12T23:49:42.812Z,82.80
2019-03-12T23:53:50.935Z,82.20
2019-03-12T23:57:59.091Z,82.10
